Time;durP1;ratioP1;P1;durP2;ratioP2;P2;SDS_P1;SDS_P2;PMS_P1;PMS_P2;Temp;Humidity;BMP_temperature;BMP_pressure;BME280_temperature;BME280_humidity;BME280_pressure;Samples;Min_cycle;Max_cycle;Signal;HPM_P1;HPM_P2
2023/12/24 00:00:00;;;;;;;;;;;;;;;13.78;60.67;98608.50;2092468;28;20140;-63
2023/12/24 00:01:01;;;;;;;8.75;3.35;;;;;;;13.84;60.49;98612.31;2091557;28;19931;-63
2023/12/24 00:02:02;;;;;;;;;;;;;;;13.76;60.49;98601.69;2089579;28;20095;-63
2023/12/24 00:03:03;;;;;;;;;;;;;;;13.72;60.75;98608.38;2093006;28;19927;-63
2023/12/24 00:04:04;;;;;;;5.83;3.10;;;;;;;13.79;60.69;98612.00;2090546;28;20012;-61
2023/12/24 00:05:06;;;;;;;;;;;;;;;13.75;60.79;98616.03;2094345;28;20312;-63
2023/12/24 00:06:07;;;;;;;8.10;2.95;;;;;;;13.80;60.63;98613.69;2092757;28;19931;-64
2023/12/24 00:07:09;;;;;;;5.78;3.33;;;;;;;13.84;60.49;98621.13;2092145;28;20052;-62
2023/12/24 00:08:10;;;;;;;9.93;4.22;;;;;;;13.90;60.46;98627.66;2089585;28;20561;-63
2023/12/24 00:09:12;;;;;;;;;;;;;;;13.81;60.60;98626.00;2091461;28;20127;-64
2023/12/24 00:10:13;;;;;;;5.47;2.80;;;;;;;13.84;60.67;98625.66;2093146;28;20701;-64
2023/12/24 00:11:14;;;;;;;;;;;;;;;13.79;60.55;98622.66;2093666;28;20073;-64
2023/12/24 00:12:16;;;;;;;8.65;3.67;;;;;;;13.84;60.64;98625.66;2090429;28;19936;-62
2023/12/24 00:13:18;;;;;;;6.45;3.00;;;;;;;13.86;60.29;98624.47;2091432;28;20121;-63
2023/12/24 00:14:19;;;;;;;4.68;2.60;;;;;;;13.90;60.41;98630.31;2090908;28;20040;-64
2023/12/24 00:15:21;;;;;;;;;;;;;;;13.83;60.43;98624.00;2090163;28;20160;-61
2023/12/24 00:16:22;;;;;;;6.05;2.67;;;;;;;13.85;60.44;98624.66;2090176;28;19925;-64
2023/12/24 00:17:23;;;;;;;;;;;;;;;13.77;60.73;98633.50;2088799;28;20140;-63
2023/12/24 00:18:24;;;;;;;6.78;3.35;;;;;;;13.83;60.60;98632.00;2090499;28;20386;-63
2023/12/24 00:19:26;;;;;;;;;;;;;;;13.77;60.76;98632.69;2088985;28;20123;-63
2023/12/24 00:20:26;;;;;;;;;;;;;;;13.72;60.72;98629.69;2090696;28;19928;-63
2023/12/24 00:21:27;;;;;;;6.23;2.67;;;;;;;13.78;60.69;98635.16;2092553;28;19959;-63
2023/12/24 00:22:29;;;;;;;;;;;;;;;13.73;60.73;98634.84;2092008;28;20099;-63
2023/12/24 00:23:30;;;;;;;4.97;2.78;;;;;;;13.81;60.69;98636.66;2090708;28;19921;-63
2023/12/24 00:24:31;;;;;;;;;;;;;;;13.75;60.75;98632.84;2090566;28;20083;-63
2023/12/24 00:25:32;;;;;;;8.10;3.35;;;;;;;13.80;60.54;98635.00;2090317;28;19929;-63
2023/12/24 00:26:34;;;;;;;;;;;;;;;13.76;60.57;98636.34;2089927;28;20506;-63
2023/12/24 00:27:36;;;;;;;9.82;3.20;;;;;;;13.81;60.70;98642.00;2092222;28;19928;-64
2023/12/24 00:28:38;;;;;;;7.13;2.75;;;;;;;13.88;60.52;98636.81;2091534;28;20151;-63
2023/12/24 00:29:39;;;;;;;4.80;2.95;;;;;;;13.91;60.33;98639.13;2088301;28;20542;-63
2023/12/24 00:30:41;;;;;;;;;;;;;;;13.82;60.43;98638.34;2092021;28;20131;-62
2023/12/24 00:31:41;;;;;;;9.93;3.22;;;;;;;13.84;60.44;98636.31;2091669;28;19927;-64
2023/12/24 00:32:42;;;;;;;;;;;;;;;13.77;60.66;98643.34;2091371;28;22943;-62
2023/12/24 00:33:44;;;;;;;6.20;3.57;;;;;;;13.82;60.57;98635.69;2089164;28;19959;-63
2023/12/24 00:34:45;;;;;;;4.22;2.53;;;;;;;13.87;60.28;98635.97;2091491;28;20817;-63
2023/12/24 00:35:46;;;;;;;;;;;;;;;13.79;60.64;98639.50;2091526;28;20083;-62
2023/12/24 00:36:47;;;;;;;5.88;3.10;;;;;;;13.82;60.50;98633.00;2090528;28;20571;-62
2023/12/24 00:37:50;;;;;;;;;;;;;;;13.76;60.70;98636.34;2090906;28;20130;-63
2023/12/24 00:38:51;;;;;;;7.78;3.17;;;;;;;13.82;60.62;98633.00;2089215;28;19920;-64
2023/12/24 00:39:52;;;;;;;;;;;;;;;13.76;60.75;98639.00;2090118;28;20464;-63
2023/12/24 00:40:53;;;;;;;4.68;2.47;;;;;;;13.81;60.61;98628.66;2091552;28;19924;-64
2023/12/24 00:41:54;;;;;;;;;;;;;;;13.75;60.61;98630.19;2092122;28;20460;-62
2023/12/24 00:42:57;;;;;;;4.33;3.10;;;;;;;13.79;60.71;98630.66;2090620;28;19959;-64
2023/12/24 00:43:58;;;;;;;7.35;3.33;;;;;;;13.83;60.29;98629.31;2091437;28;20067;-64
2023/12/24 00:44:59;;;;;;;;;;;;;;;13.76;60.88;98633.66;2092075;28;20503;-63
2023/12/24 00:46:00;;;;;;;8.73;2.88;;;;;;;13.80;60.44;98632.34;2089899;28;19920;-62
2023/12/24 00:47:02;;;;;;;;;;;;;;;13.75;60.57;98640.00;2091517;28;20080;-62
2023/12/24 00:48:03;;;;;;;;;;;;;;;13.71;60.89;98631.53;2091472;28;19981;-63
2023/12/24 00:49:05;;;;;;;5.55;2.90;;;;;;;13.78;60.64;98631.69;2089116;28;20014;-62
2023/12/24 00:50:07;;;;;;;5.63;3.05;;;;;;;13.83;60.64;98627.47;2088311;28;20075;-64
2023/12/24 00:51:08;;;;;;;7.07;3.13;;;;;;;13.88;60.33;98634.97;2090970;28;20048;-61
2023/12/24 00:52:11;;;;;;;4.85;3.00;;;;;;;13.90;60.29;98638.31;2092225;28;20107;-63
2023/12/24 00:53:12;;;;;;;5.82;3.05;;;;;;;13.91;60.25;98641.81;2088930;28;20048;-63
2023/12/24 00:54:14;;;;;;;;;;;;;;;13.81;60.53;98639.31;2089391;28;20052;-63
2023/12/24 00:55:15;;;;;;;4.07;2.70;;;;;;;13.84;60.39;98644.31;2090968;28;20410;-62
2023/12/24 00:56:16;;;;;;;;;;;;;;;13.78;60.57;98645.00;2088579;28;20060;-63
2023/12/24 00:57:17;;;;;;;7.20;2.58;;;;;;;13.82;60.45;98641.84;2090422;28;19928;-62
2023/12/24 00:58:20;;;;;;;;;;;;;;;13.77;60.50;98648.69;2088776;28;20083;-63
2023/12/24 00:59:21;;;;;;;3.67;2.05;;;;;;;13.81;60.47;98650.81;2090467;28;20066;-64
2023/12/24 01:00:23;;;;;;;;;;;;;;;13.75;60.55;98646.19;2091581;28;20052;-63
2023/12/24 01:01:24;;;;;;;7.03;3.35;;;;;;;13.80;60.57;98643.84;2091248;28;19921;-64
2023/12/24 01:02:24;;;;;;;;;;;;;;;13.74;60.59;98649.84;2091963;28;20515;-62
2023/12/24 01:03:26;;;;;;;7.37;3.57;;;;;;;13.80;60.44;98653.66;2090350;28;20148;-63
2023/12/24 01:04:27;;;;;;;6.60;2.60;;;;;;;13.83;60.42;98648.81;2090160;28;20099;-63
2023/12/24 01:05:28;;;;;;;;;;;;;;;13.77;60.49;98652.19;2092235;28;20056;-63
2023/12/24 01:06:29;;;;;;;6.87;3.20;;;;;;;13.82;60.71;98649.00;2091780;28;19924;-64
2023/12/24 01:07:30;;;;;;;3.10;2.10;;;;;;;13.87;60.43;98659.97;2090431;28;20511;-61
2023/12/24 01:08:32;;;;;;;;;;;;;;;13.77;60.54;98649.50;2090283;28;20045;-62
2023/12/24 01:09:33;;;;;;;3.92;2.80;;;;;;;13.83;60.55;98648.00;2091927;28;20193;-63
2023/12/24 01:10:34;;;;;;;;;;;;;;;13.76;60.60;98657.66;2093129;28;20087;-63
2023/12/24 01:11:35;;;;;;;;;;;;;;;13.72;60.69;98667.03;2092307;28;19928;-64
2023/12/24 01:12:38;;;;;;;5.03;2.13;;;;;;;13.76;60.54;98663.00;2089524;28;19966;-64
2023/12/24 01:13:40;;;;;;;4.88;2.60;;;;;;;13.81;60.32;98669.47;2091492;28;20105;-63
2023/12/24 01:14:42;;;;;;;5.47;2.85;;;;;;;13.88;60.32;98666.97;2089623;28;20127;-64
2023/12/24 01:15:43;;;;;;;6.50;2.67;;;;;;;13.89;60.39;98662.47;2090378;28;20045;-63
2023/12/24 01:16:45;;;;;;;;;;;;;;;13.81;60.50;98663.31;2089241;28;20075;-64
2023/12/24 01:17:45;;;;;;;;;;;;;;;13.74;60.59;98670.34;2089161;28;19928;-62
2023/12/24 01:18:48;;;;;;;4.50;2.67;;;;;;;13.80;60.67;98667.00;2087631;28;19968;-63
2023/12/24 01:19:48;;;;;;;7.95;2.63;;;;;;;13.84;60.40;98665.63;2091625;28;20048;-62
2023/12/24 01:20:49;;;;;;;;;;;;;;;13.76;60.47;98663.00;2090458;28;20780;-62
2023/12/24 01:21:54;;;;;;;7.13;3.10;;;;;;;13.82;60.49;98667.66;2090902;28;19986;-63
2023/12/24 01:22:55;;;;;;;6.57;2.22;;;;;;;13.85;60.50;98676.16;2089964;28;20070;-63
2023/12/24 01:23:56;;;;;;;;;;;;;;;13.80;60.56;98667.00;2091428;28;20139;-63
2023/12/24 01:24:57;;;;;;;6.93;3.45;;;;;;;13.82;60.52;98681.00;2089716;28;19920;-63
2023/12/24 01:25:59;;;;;;;;;;;;;;;13.76;60.67;98685.19;2090742;28;20570;-64
2023/12/24 01:27:00;;;;;;;5.30;3.17;;;;;;;13.82;60.54;98678.31;2090367;28;19920;-63
2023/12/24 01:28:00;;;;;;;;;;;;;;;13.75;60.50;98680.81;2091460;28;20135;-63
2023/12/24 01:29:04;;;;;;;6.30;3.20;;;;;;;13.80;60.52;98689.16;2090661;28;20302;-63
2023/12/24 01:30:06;;;;;;;5.93;2.92;;;;;;;13.84;60.40;98677.13;2089479;28;20040;-61
2023/12/24 01:31:08;;;;;;;7.40;2.53;;;;;;;13.88;60.25;98682.97;2090121;28;20047;-62
2023/12/24 01:32:08;;;;;;;8.25;2.90;;;;;;;13.89;60.28;98684.63;2092503;28;20047;-63
2023/12/24 01:33:09;;;;;;;;;;;;;;;13.78;60.45;98691.16;2088512;28;20072;-64
2023/12/24 01:34:11;;;;;;;4.23;3.07;;;;;;;13.82;60.50;98691.66;2090344;28;19932;-64
2023/12/24 01:35:12;;;;;;;4.70;2.40;;;;;;;13.85;60.54;98688.66;2088461;28;20733;-64
2023/12/24 01:36:13;;;;;;;;;;;;;;;13.77;60.52;98691.34;2092345;28;20148;-63
2023/12/24 01:37:15;;;;;;;6.05;2.33;;;;;;;13.81;60.51;98687.31;2092630;28;19924;-62
2023/12/24 01:38:17;;;;;;;7.82;2.95;;;;;;;13.85;60.53;98699.31;2088413;28;20057;-63
2023/12/24 01:39:20;;;;;;;5.07;2.40;;;;;;;13.88;60.27;98696.31;2092005;28;20044;-63
2023/12/24 01:40:22;;;;;;;7.57;2.95;;;;;;;13.90;60.30;98696.97;2091031;28;20128;-63
2023/12/24 01:41:22;;;;;;;5.80;2.85;;;;;;;13.92;60.43;98684.28;2089780;28;20040;-64
2023/12/24 01:42:24;;;;;;;;;;;;;;;13.84;60.45;98694.97;2089763;28;20123;-64
2023/12/24 01:43:25;;;;;;;;;;;;;;;13.76;60.49;98694.97;2089746;28;20046;-64
2023/12/24 01:44:28;;;;;;;5.18;2.88;;;;;;;13.80;60.56;98696.31;2088778;28;19928;-64
2023/12/24 01:45:29;;;;;;;5.80;2.88;;;;;;;13.85;60.34;98684.13;2089724;28;20106;-64
2023/12/24 01:46:31;;;;;;;;;;;;;;;13.76;60.39;98693.16;2093180;28;20499;-64
2023/12/24 01:47:33;;;;;;;6.15;2.63;;;;;;;13.83;60.37;98695.97;2088050;28;20318;-64
2023/12/24 01:48:34;;;;;;;3.85;2.03;;;;;;;13.85;60.44;98683.31;2090995;28;20618;-64
2023/12/24 01:49:36;;;;;;;;;;;;;;;13.79;60.52;98694.63;2089251;28;20045;-63
2023/12/24 01:50:38;;;;;;;6.85;2.47;;;;;;;13.80;60.32;98691.81;2090708;28;19927;-63
2023/12/24 01:51:39;;;;;;;4.63;2.42;;;;;;;13.84;60.33;98690.47;2088170;28;20110;-63
2023/12/24 01:52:41;;;;;;;4.45;2.85;;;;;;;13.89;60.23;98695.28;2088670;28;20067;-64
2023/12/24 01:53:43;;;;;;;7.35;2.85;;;;;;;13.89;60.28;98684.63;2090030;28;20114;-64
2023/12/24 01:54:46;;;;;;;6.53;2.88;;;;;;;13.92;60.31;98688.78;2088384;28;20048;-64
2023/12/24 01:55:49;;;;;;;8.23;2.70;;;;;;;13.92;60.12;98694.94;2090990;28;20052;-63
2023/12/24 01:56:50;;;;;;;5.78;2.17;;;;;;;13.90;60.20;98696.13;2091903;28;20731;-63
2023/12/24 01:57:51;;;;;;;;;;;;;;;13.79;60.35;98699.97;2087992;28;20127;-63
2023/12/24 01:58:52;;;;;;;;;;;;;;;13.74;60.68;98705.00;2089932;28;20248;-61
2023/12/24 01:59:55;;;;;;;7.63;2.40;;;;;;;13.78;60.37;98703.66;2089227;28;19979;-62
2023/12/24 02:00:57;;;;;;;6.43;2.67;;;;;;;13.81;60.26;98697.97;2089058;28;20061;-62
2023/12/24 02:01:58;;;;;;;6.82;2.40;;;;;;;13.87;60.41;98702.63;2092491;28;20049;-63
2023/12/24 02:03:01;;;;;;;;;;;;;;;13.79;60.49;98702.63;2090580;28;20068;-63
2023/12/24 02:04:02;;;;;;;6.70;2.42;;;;;;;13.83;60.31;98702.13;2090334;28;19924;-62
2023/12/24 02:05:04;;;;;;;6.13;2.42;;;;;;;13.88;60.12;98698.13;2092697;28;20495;-63
2023/12/24 02:06:09;;;;;;;6.85;2.30;;;;;;;13.90;59.95;98699.63;2090019;28;20044;-63
2023/12/24 02:07:11;;;;;;;7.10;3.80;;;;;;;13.90;60.20;98696.13;2091835;28;20040;-63
2023/12/24 02:08:16;;;;;;;6.63;3.03;;;;;;;13.89;60.21;98695.28;2090799;28;20060;-62
2023/12/24 02:09:17;;;;;;;4.32;2.40;;;;;;;13.91;60.20;98705.78;2087312;28;20048;-62
2023/12/24 02:10:19;;;;;;;;;;;;;;;13.81;60.37;98709.47;2090191;28;20076;-63
2023/12/24 02:11:20;;;;;;;6.00;2.78;;;;;;;13.84;60.28;98698.44;2091808;28;20387;-63
2023/12/24 02:12:21;;;;;;;5.03;2.33;;;;;;;13.88;60.21;98703.47;2092218;28;20055;-64
2023/12/24 02:13:23;;;;;;;;;;;;;;;13.78;60.37;98704.47;2092706;28;20426;-62
2023/12/24 02:14:24;;;;;;;6.45;2.75;;;;;;;13.82;60.34;98699.66;2089880;28;19920;-61
2023/12/24 02:15:27;;;;;;;;;;;;;;;13.76;60.54;98690.50;2089682;28;20500;-61
2023/12/24 02:16:33;;;;;;;4.90;2.17;;;;;;;13.82;60.44;98702.31;2093727;28;19968;-62
2023/12/24 02:17:36;;;;;;;3.17;2.22;;;;;;;13.85;60.39;98694.81;2091620;28;20522;-62
2023/12/24 02:18:41;;;;;;;7.18;2.60;;;;;;;13.88;60.34;98688.31;2089991;28;20534;-62
2023/12/24 02:19:43;;;;;;;4.05;1.75;;;;;;;13.88;60.30;98688.31;2089476;28;20059;-63
2023/12/24 02:20:45;;;;;;;5.05;2.00;;;;;;;13.88;60.09;98680.31;2090934;28;20960;-63
2023/12/24 02:21:48;;;;;;;8.35;2.63;;;;;;;13.91;60.30;98681.78;2089735;28;20451;-63
2023/12/24 02:22:49;;;;;;;6.90;2.83;;;;;;;13.89;60.21;98679.28;2093188;28;20052;-63
2023/12/24 02:23:50;;;;;;;;;;;;;;;13.81;60.26;98692.63;2089564;28;20075;-63
2023/12/24 02:24:51;;;;;;;5.50;2.58;;;;;;;13.84;60.22;98682.47;2089732;28;19927;-62
2023/12/24 02:25:54;;;;;;;;;;;;;;;13.77;60.59;98680.66;2091928;28;20075;-62
2023/12/24 02:27:03;;;;;;;5.13;2.25;;;;;;;13.82;60.46;98689.00;2091314;28;19982;-62
2023/12/24 02:28:11;;;;;;;3.25;2.17;;;;;;;13.84;60.46;98676.31;2090855;28;20037;-63
2023/12/24 02:29:17;;;;;;;5.30;2.38;;;;;;;13.87;60.27;98678.63;2087029;28;20411;-63
2023/12/24 02:30:21;;;;;;;5.65;2.72;;;;;;;13.88;60.23;98677.63;2091465;28;20040;-63
2023/12/24 02:31:27;;;;;;;6.90;2.47;;;;;;;13.90;60.13;98674.78;2088074;28;20496;-62
2023/12/24 02:32:29;;;;;;;8.13;2.53;;;;;;;13.90;60.22;98675.63;2088632;28;20049;-64
2023/12/24 02:33:40;;;;;;;7.55;2.97;;;;;;;13.90;60.10;98667.63;2091546;28;20044;-63
2023/12/24 02:34:43;;;;;;;7.95;2.40;;;;;;;13.91;60.12;98681.78;2090230;28;20127;-63
2023/12/24 02:35:48;;;;;;;4.70;2.50;;;;;;;13.91;60.00;98671.94;2089065;28;20072;-61
2023/12/24 02:36:51;;;;;;;5.80;2.63;;;;;;;13.91;60.21;98668.47;2090783;28;20518;-63
2023/12/24 02:37:52;;;;;;;5.63;2.28;;;;;;;13.91;60.15;98671.13;2088670;28;20048;-62
2023/12/24 02:38:54;;;;;;;;;;;;;;;13.79;60.43;98663.50;2090475;28;20044;-63
2023/12/24 02:39:54;;;;;;;;;;;;;;;13.73;60.80;98679.34;2092198;28;19924;-61
2023/12/24 02:40:56;;;;;;;9.47;2.30;;;;;;;13.78;60.60;98671.66;2091125;28;20007;-62
2023/12/24 02:41:57;;;;;;;4.30;2.75;;;;;;;13.82;60.29;98667.66;2094079;28;20302;-62
2023/12/24 02:42:59;;;;;;;;;;;;;;;13.77;60.55;98664.69;2093811;28;20083;-63
2023/12/24 02:44:00;;;;;;;3.47;2.42;;;;;;;13.82;60.24;98670.31;2091624;28;20359;-62
2023/12/24 02:45:00;;;;;;;;;;;;;;;13.74;60.72;98673.84;2089096;28;20123;-62
2023/12/24 02:46:02;;;;;;;8.63;2.23;;;;;;;13.78;60.52;98674.31;2092424;28;19916;-63
2023/12/24 02:47:04;;;;;;;5.93;2.50;;;;;;;13.83;60.37;98670.13;2087555;28;20055;-63
2023/12/24 02:48:06;;;;;;;4.85;2.00;;;;;;;13.86;60.26;98671.63;2090393;28;20052;-64
2023/12/24 02:49:07;;;;;;;4.40;1.88;;;;;;;13.89;60.19;98671.28;2089642;28;20037;-63
2023/12/24 02:50:09;;;;;;;;;;;;;;;13.80;60.30;98664.34;2095008;28;20128;-62
2023/12/24 02:51:10;;;;;;;7.93;2.75;;;;;;;13.83;60.28;98669.31;2092074;28;19929;-63
2023/12/24 02:52:13;;;;;;;;;;;;;;;13.76;60.52;98657.66;2089674;28;20075;-63
2023/12/24 02:53:14;;;;;;;3.90;2.15;;;;;;;13.80;60.55;98661.66;2090083;28;19927;-64
2023/12/24 02:54:15;;;;;;;;;;;;;;;13.74;60.62;98660.50;2091637;28;20051;-63
2023/12/24 02:55:16;;;;;;;5.05;2.47;;;;;;;13.78;60.45;98656.50;2091277;28;19924;-62
2023/12/24 02:56:18;;;;;;;;;;;;;;;13.73;60.69;98668.66;2093393;28;20139;-63
2023/12/24 02:57:19;;;;;;;;;;;;;;;13.67;60.67;98656.84;2092686;28;19924;-63
2023/12/24 02:58:20;;;;;;;4.50;2.08;;;;;;;13.73;60.81;98653.50;2092078;28;19967;-64
2023/12/24 02:59:21;;;;;;;5.22;2.22;;;;;;;13.82;60.46;98651.66;2091802;28;20048;-63
2023/12/24 03:00:22;;;;;;;;;;;;;;;13.76;60.50;98657.66;2089209;28;20145;-63
2023/12/24 03:01:24;;;;;;;5.53;2.50;;;;;;;13.78;60.48;98648.50;2093697;28;20035;-64
2023/12/24 03:02:25;;;;;;;4.65;2.50;;;;;;;13.83;60.47;98653.31;2090750;28;20044;-63
2023/12/24 03:03:26;;;;;;;;;;;;;;;13.77;60.61;98654.00;2092705;28;20083;-64
2023/12/24 03:04:27;;;;;;;;;;;;;;;13.70;60.76;98651.19;2092935;28;19927;-63
2023/12/24 03:05:29;;;;;;;6.73;2.73;;;;;;;13.75;60.58;98651.50;2089819;28;19920;-64
2023/12/24 03:06:29;;;;;;;6.03;2.53;;;;;;;13.80;60.43;98648.34;2095047;28;20052;-62
2023/12/24 03:07:32;;;;;;;;;;;;;;;13.75;60.71;98653.34;2087569;28;20139;-64
2023/12/24 03:08:33;;;;;;;3.83;2.05;;;;;;;13.78;60.44;98650.34;2089735;28;20007;-64
2023/12/24 03:09:35;;;;;;;;;;;;;;;13.71;60.62;98654.72;2092646;28;20416;-64
2023/12/24 03:10:36;;;;;;;5.20;1.95;;;;;;;13.75;60.56;98658.69;2091626;28;19928;-64
2023/12/24 03:11:36;;;;;;;;;;;;;;;13.70;60.85;98659.19;2093329;28;20072;-63
2023/12/24 03:12:38;;;;;;;4.57;2.23;;;;;;;13.75;60.77;98650.69;2091497;28;19961;-64
2023/12/24 03:13:39;;;;;;;5.70;2.05;;;;;;;13.81;60.47;98650.81;2091167;28;20049;-64
2023/12/24 03:14:41;;;;;;;;;;;;;;;13.75;60.50;98650.69;2094561;28;20075;-64
2023/12/24 03:15:43;;;;;;;6.20;2.65;;;;;;;13.79;60.55;98644.00;2089564;28;19920;-61
2023/12/24 03:16:45;;;;;;;4.22;1.88;;;;;;;13.82;60.46;98641.00;2091452;28;20102;-62
2023/12/24 03:17:46;;;;;;;6.32;2.30;;;;;;;13.83;60.37;98651.47;2092196;28;20041;-62
2023/12/24 03:18:46;;;;;;;;;;;;;;;13.76;60.60;98650.53;2090324;28;20119;-63
2023/12/24 03:19:48;;;;;;;4.63;2.63;;;;;;;13.80;60.51;98656.34;2091409;28;19999;-63
2023/12/24 03:20:49;;;;;;;4.78;2.20;;;;;;;13.85;60.45;98656.66;2091440;28;20044;-62
2023/12/24 03:21:51;;;;;;;;;;;;;;;13.75;60.55;98653.34;2091420;28;20144;-63
2023/12/24 03:22:53;;;;;;;4.93;2.53;;;;;;;13.79;60.57;98649.31;2091617;28;20390;-62
2023/12/24 03:23:55;;;;;;;5.68;2.33;;;;;;;13.83;60.40;98653.31;2090759;28;20104;-64
2023/12/24 03:24:56;;;;;;;7.35;3.17;;;;;;;13.83;60.49;98654.16;2088712;28;20067;-62
2023/12/24 03:25:57;;;;;;;;;;;;;;;13.77;60.37;98656.69;2091946;28;20145;-62
2023/12/24 03:26:58;;;;;;;4.13;2.42;;;;;;;13.80;60.52;98651.00;2091641;28;19928;-64
2023/12/24 03:28:00;;;;;;;;;;;;;;;13.74;60.72;98665.84;2088531;28;20120;-63
2023/12/24 03:29:00;;;;;;;;;;;;;;;13.70;60.77;98663.69;2093184;28;19931;-63
2023/12/24 03:30:02;;;;;;;1.83;1.53;;;;;;;13.74;60.65;98655.19;2092458;28;20219;-63
2023/12/24 03:31:04;;;;;;;4.85;2.58;;;;;;;13.80;60.52;98662.50;2091773;28;20072;-63
2023/12/24 03:32:06;;;;;;;6.72;2.15;;;;;;;13.83;60.38;98653.31;2091646;28;20585;-63
2023/12/24 03:33:07;;;;;;;5.55;2.38;;;;;;;13.86;60.30;98655.63;2091870;28;20053;-64
2023/12/24 03:34:09;;;;;;;;;;;;;;;13.78;60.52;98650.34;2089389;28;20080;-63
2023/12/24 03:35:10;;;;;;;5.15;2.53;;;;;;;13.83;60.38;98658.66;2090028;28;20878;-64
2023/12/24 03:36:10;;;;;;;;;;;;;;;13.76;60.50;98655.00;2092106;28;20136;-63
2023/12/24 03:37:12;;;;;;;3.30;2.33;;;;;;;13.79;60.44;98652.84;2089983;28;21515;-62
2023/12/24 03:38:16;;;;;;;7.43;2.83;;;;;;;13.82;60.36;98652.50;2091968;28;20037;-64
2023/12/24 03:39:18;;;;;;;7.88;2.80;;;;;;;13.83;60.43;98658.66;2090731;28;20418;-63
2023/12/24 03:40:19;;;;;;;7.93;3.80;;;;;;;13.85;60.14;98651.31;2091106;28;20056;-64
2023/12/24 03:41:21;;;;;;;;;;;;;;;13.78;60.58;98661.00;2091640;28;20087;-61
2023/12/24 03:42:21;;;;;;;;;;;;;;;13.71;60.63;98660.03;2094112;28;20356;-63
2023/12/24 03:43:23;;;;;;;2.43;1.93;;;;;;;13.76;60.39;98653.19;2091487;28;19978;-62
2023/12/24 03:44:24;;;;;;;5.93;2.67;;;;;;;13.81;60.58;98656.16;2091073;28;20317;-63
2023/12/24 03:45:25;;;;;;;;;;;;;;;13.75;60.59;98653.34;2091669;28;20076;-63
2023/12/24 03:46:27;;;;;;;7.63;2.43;;;;;;;13.77;60.57;98648.69;2090950;28;20146;-63
2023/12/24 03:47:27;;;;;;;4.53;2.50;;;;;;;13.83;60.38;98648.00;2091458;28;20131;-63
2023/12/24 03:48:29;;;;;;;;;;;;;;;13.74;60.47;98659.69;2091853;28;20056;-63
2023/12/24 03:49:31;;;;;;;4.03;2.05;;;;;;;13.78;60.47;98666.31;2090595;28;19921;-63
2023/12/24 03:50:32;;;;;;;4.25;1.98;;;;;;;13.82;60.40;98662.34;2090761;28;20052;-62
2023/12/24 03:51:33;;;;;;;;;;;;;;;13.75;60.51;98666.66;2092503;28;20068;-62
2023/12/24 03:52:34;;;;;;;3.38;1.80;;;;;;;13.78;60.58;98661.00;2090626;28;19924;-63
2023/12/24 03:53:37;;;;;;;;;;;;;;;13.72;60.50;98656.34;2091016;28;21274;-64
2023/12/24 03:54:38;;;;;;;4.43;2.28;;;;;;;13.77;60.44;98662.84;2091250;28;19924;-63
2023/12/24 03:55:40;;;;;;;;;;;;;;;13.72;60.73;98673.19;2092281;28;20048;-63
2023/12/24 03:56:41;;;;;;;2.33;1.58;;;;;;;13.75;60.57;98661.34;2090384;28;19928;-63
2023/12/24 03:57:42;;;;;;;;;;;;;;;13.72;60.62;98661.69;2092789;28;20093;-63
2023/12/24 03:58:43;;;;;;;3.05;1.70;;;;;;;13.76;60.68;98657.66;2090013;28;19937;-62
2023/12/24 03:59:45;;;;;;;;;;;;;;;13.69;60.59;98660.19;2093563;28;20125;-63
2023/12/24 04:00:46;;;;;;;3.88;1.77;;;;;;;13.74;60.72;98665.03;2090089;28;19927;-63
2023/12/24 04:01:48;;;;;;;2.90;1.83;;;;;;;13.79;60.52;98657.31;2090976;28;20041;-61
2023/12/24 04:02:49;;;;;;;3.70;2.25;;;;;;;13.83;60.22;98659.47;2089278;28;20397;-63
2023/12/24 04:03:50;;;;;;;;;;;;;;;13.77;60.39;98672.66;2094102;28;20079;-63
2023/12/24 04:04:51;;;;;;;6.88;2.05;;;;;;;13.78;60.61;98671.66;2092514;28;19927;-63
2023/12/24 04:05:53;;;;;;;;;;;;;;;13.71;60.57;98671.53;2091430;28;20052;-63
2023/12/24 04:06:53;;;;;;;5.97;2.70;;;;;;;13.76;60.37;98671.00;2091844;28;19931;-62
2023/12/24 04:07:55;;;;;;;;;;;;;;;13.71;60.61;98673.38;2092197;28;20127;-61
2023/12/24 04:08:57;;;;;;;3.33;2.20;;;;;;;13.77;60.56;98672.66;2089485;28;19932;-63
2023/12/24 04:09:59;;;;;;;6.20;2.38;;;;;;;13.80;60.52;98667.00;2090785;28;20055;-62
2023/12/24 04:11:00;;;;;;;5.40;2.20;;;;;;;13.84;60.17;98669.13;2091120;28;20435;-62
2023/12/24 04:12:01;;;;;;;;;;;;;;;13.74;60.47;98668.50;2094286;28;20041;-63
2023/12/24 04:13:03;;;;;;;4.57;2.10;;;;;;;13.77;60.59;98665.50;2092173;28;19924;-63
2023/12/24 04:14:04;;;;;;;5.15;3.08;;;;;;;13.81;60.34;98663.31;2092227;28;20053;-62
2023/12/24 04:15:06;;;;;;;;;;;;;;;13.74;60.44;98667.69;2091068;28;20574;-62
2023/12/24 04:16:07;;;;;;;7.47;2.28;;;;;;;13.76;60.53;98669.19;2090818;28;19936;-63
2023/12/24 04:17:09;;;;;;;4.57;2.15;;;;;;;13.80;60.32;98667.81;2090455;28;20056;-62
2023/12/24 04:18:10;;;;;;;5.72;2.00;;;;;;;13.84;60.36;98665.63;2089378;28;20049;-62
2023/12/24 04:19:12;;;;;;;;;;;;;;;13.76;60.40;98679.00;2092496;28;20068;-63
2023/12/24 04:20:13;;;;;;;;;;;;;;;13.71;60.76;98678.69;2093111;28;19920;-63
2023/12/24 04:21:16;;;;;;;5.72;2.20;;;;;;;13.75;60.75;98672.00;2090043;28;19978;-61
2023/12/24 04:22:16;;;;;;;3.63;1.98;;;;;;;13.79;60.59;98676.84;2091063;28;20595;-63
2023/12/24 04:23:18;;;;;;;;;;;;;;;13.74;60.71;98678.34;2089353;28;20044;-62
2023/12/24 04:24:20;;;;;;;3.95;2.08;;;;;;;13.75;60.59;98672.81;2087794;28;19925;-62
2023/12/24 04:25:22;;;;;;;4.60;2.20;;;;;;;13.80;60.46;98677.66;2091129;28;20053;-63
2023/12/24 04:26:23;;;;;;;4.72;2.42;;;;;;;13.85;60.39;98688.66;2092399;28;20044;-64
2023/12/24 04:27:25;;;;;;;;;;;;;;;13.74;60.38;98681.84;2090654;28;20728;-64
2023/12/24 04:28:25;;;;;;;3.65;1.75;;;;;;;13.77;60.49;98684.16;2092365;28;20299;-63
2023/12/24 04:29:26;;;;;;;;;;;;;;;13.72;60.63;98685.69;2089929;28;20132;-63
2023/12/24 04:30:28;;;;;;;5.43;1.93;;;;;;;13.75;60.45;98686.16;2090690;28;19920;-64
2023/12/24 04:31:29;;;;;;;2.63;1.90;;;;;;;13.79;60.44;98694.63;2091172;28;20048;-64
2023/12/24 04:32:29;;;;;;;;;;;;;;;13.73;60.57;98684.66;2093298;28;20522;-63
2023/12/24 04:33:31;;;;;;;9.17;2.83;;;;;;;13.76;60.57;98694.97;2089898;28;19917;-64
2023/12/24 04:34:32;;;;;;;4.15;2.33;;;;;;;13.79;60.43;98689.31;2090889;28;20061;-63
2023/12/24 04:35:34;;;;;;;;;;;;;;;13.73;60.68;98690.81;2089505;28;20127;-64
2023/12/24 04:36:36;;;;;;;4.47;2.38;;;;;;;13.75;60.64;98691.50;2092658;28;19969;-64
2023/12/24 04:37:36;;;;;;;4.45;2.20;;;;;;;13.79;60.43;98691.97;2091299;28;20048;-64
2023/12/24 04:38:38;;;;;;;;;;;;;;;13.74;60.38;98691.69;2090844;28;20511;-64
2023/12/24 04:39:40;;;;;;;8.27;2.70;;;;;;;13.77;60.53;98700.16;2090027;28;19924;-62
2023/12/24 04:40:42;;;;;;;4.05;1.80;;;;;;;13.81;60.46;98696.13;2091251;28;20052;-61
2023/12/24 04:41:43;;;;;;;4.88;2.25;;;;;;;13.82;60.37;98697.00;2089582;28;20048;-64
2023/12/24 04:42:45;;;;;;;;;;;;;;;13.73;60.46;98698.81;2091522;28;20068;-63
2023/12/24 04:43:45;;;;;;;5.55;2.30;;;;;;;13.76;60.49;98697.66;2092454;28;19924;-63
2023/12/24 04:44:46;;;;;;;;;;;;;;;13.71;60.57;98694.69;2092509;28;20131;-63
2023/12/24 04:45:48;;;;;;;6.13;2.60;;;;;;;13.73;60.52;98693.50;2091505;28;19920;-63
2023/12/24 04:46:49;;;;;;;6.05;2.38;;;;;;;13.80;60.44;98691.00;2092240;28;20044;-61
2023/12/24 04:47:53;;;;;;;;;;;;;;;13.73;60.55;98698.81;2094239;28;20086;-62
2023/12/24 04:48:54;;;;;;;5.88;2.85;;;;;;;13.76;60.63;98694.97;2091124;28;19940;-63
2023/12/24 04:49:54;;;;;;;;;;;;;;;13.70;60.55;98696.50;2091909;28;20048;-64
2023/12/24 04:50:56;;;;;;;4.07;2.57;;;;;;;13.75;60.55;98701.31;2090664;28;20298;-63
2023/12/24 04:51:59;;;;;;;4.72;2.58;;;;;;;13.79;60.43;98699.97;2089904;28;20055;-61
2023/12/24 04:53:01;;;;;;;3.63;1.60;;;;;;;13.81;60.39;98703.31;2090112;28;20051;-61
2023/12/24 04:54:02;;;;;;;6.10;2.22;;;;;;;13.84;60.40;98698.44;2091920;28;20063;-63
2023/12/24 04:55:07;;;;;;;4.57;2.00;;;;;;;13.86;60.12;98696.47;2091895;28;20726;-63
2023/12/24 04:56:18;;;;;;;6.00;2.35;;;;;;;13.85;60.17;98710.81;2089549;28;20051;-63
2023/12/24 04:57:20;;;;;;;7.70;2.17;;;;;;;13.86;60.17;98707.13;2090913;28;20057;-64
2023/12/24 04:58:21;;;;;;;3.33;1.77;;;;;;;13.86;60.33;98709.78;2090677;28;20064;-63
2023/12/24 04:59:22;;;;;;;;;;;;;;;13.75;60.50;98710.16;2090656;28;20064;-62